Time;durP1;ratioP1;P1;durP2;ratioP2;P2;SDS_P1;SDS_P2;PMS_P1;PMS_P2;Temp;Humidity;BMP_temperature;BMP_pressure;BME280_temperature;BME280_humidity;BME280_pressure;Samples;Min_cycle;Max_cycle;Signal;HPM_P1;HPM_P2
2023/10/29 00:00:22;;;;;;;0.30;0.30;;;;;;;15.70;58.28;100986.75;4753341;30;20410;-88
2023/10/29 00:02:47;;;;;;;0.50;0.30;;;;;;;15.90;57.69;100988.72;4768702;30;20422;-87
2023/10/29 00:05:13;;;;;;;0.20;0.20;;;;;;;15.99;57.30;100980.34;4768593;30;20468;-86
2023/10/29 00:07:39;;;;;;;0.20;0.20;;;;;;;16.09;56.96;100996.00;4752222;30;20506;-86
2023/10/29 00:10:06;;;;;;;0.30;0.30;;;;;;;15.96;57.07;101001.31;4752313;30;20410;-87
2023/10/29 00:12:32;;;;;;;0.30;0.30;;;;;;;15.84;57.42;101009.84;4752204;30;20414;-86
2023/10/29 00:14:58;;;;;;;0.30;0.30;;;;;;;15.88;57.19;101002.28;4768092;30;20401;-84
2023/10/29 00:17:23;;;;;;;0.40;0.40;;;;;;;15.88;57.21;101004.13;4752151;30;20410;-86
2023/10/29 00:19:50;;;;;;;0.20;0.20;;;;;;;15.89;57.03;101005.78;4752214;30;20433;-84
2023/10/29 00:22:16;;;;;;;0.35;0.35;;;;;;;15.78;57.46;101007.16;4752004;30;20807;-85
2023/10/29 00:24:42;;;;;;;3.40;1.60;;;;;;;15.74;57.44;101000.53;4751614;30;20405;-84
2023/10/29 00:27:07;;;;;;;0.50;0.30;;;;;;;15.84;57.02;101007.19;4751913;30;20425;-84
2023/10/29 00:29:33;;;;;;;0.60;0.35;;;;;;;15.89;56.75;101009.28;4773541;30;20422;-85
2023/10/29 00:31:58;;;;;;;0.10;0.10;;;;;;;16.01;56.45;101018.41;4751936;30;20425;-83
2023/10/29 00:34:24;;;;;;;0.40;0.30;;;;;;;16.01;56.31;101012.22;4766657;30;20445;-84
2023/10/29 00:36:49;;;;;;;0.43;0.43;;;;;;;16.04;56.37;100995.78;4751950;30;20997;-83
2023/10/29 00:39:15;;;;;;;0.30;0.20;;;;;;;16.08;56.20;100998.88;4767855;30;20409;-83
2023/10/29 00:41:43;;;;;;;0.10;0.10;;;;;;;16.01;56.18;100988.16;4751801;30;20402;-83
2023/10/29 00:44:08;;;;;;;0.20;0.20;;;;;;;16.01;56.16;100991.66;4767695;30;20410;-84
2023/10/29 00:46:35;;;;;;;0.20;0.20;;;;;;;16.02;56.00;100993.28;4751905;30;20406;-84
2023/10/29 00:49:02;;;;;;;0.20;0.20;;;;;;;16.00;56.04;100989.19;4767417;30;20500;-85
2023/10/29 00:51:29;;;;;;;0.20;0.20;;;;;;;15.98;56.11;100989.38;4767576;30;20509;-85
2023/10/29 00:53:55;;;;;;;0.10;0.10;;;;;;;16.01;56.13;100999.69;4751752;30;20500;-85
2023/10/29 00:56:20;;;;;;;0.17;0.17;;;;;;;15.94;56.24;101003.34;4767751;30;20965;-85
2023/10/29 00:58:47;;;;;;;0.10;0.10;;;;;;;15.92;56.21;100994.69;4751337;30;20422;-85
2023/10/29 01:01:12;;;;;;;0.20;0.20;;;;;;;15.96;56.20;101003.97;4751703;30;20501;-84
2023/10/29 01:03:38;;;;;;;0.10;0.10;;;;;;;15.90;56.33;101005.59;4751843;30;20522;-84
2023/10/29 01:06:04;;;;;;;0.10;0.10;;;;;;;15.77;56.44;101003.69;4767543;30;20430;-85
2023/10/29 01:08:30;;;;;;;0.20;0.20;;;;;;;15.76;56.68;101009.22;4751592;30;20918;-84
2023/10/29 01:10:55;;;;;;;0.10;0.10;;;;;;;15.62;56.83;101009.09;4751243;30;20520;-85
2023/10/29 01:13:21;;;;;;;0.10;0.10;;;;;;;15.47;57.44;101006.53;4751412;30;20410;-85
2023/10/29 01:15:46;;;;;;;0.10;0.10;;;;;;;15.51;57.27;101009.63;4751396;30;20402;-84
2023/10/29 01:18:12;;;;;;;0.10;0.10;;;;;;;15.52;57.38;101010.47;4767014;30;20414;-83
2023/10/29 01:20:38;;;;;;;0.20;0.20;;;;;;;15.37;57.87;101015.91;4751188;30;20928;-84
2023/10/29 01:23:04;;;;;;;0.10;0.10;;;;;;;15.29;58.18;101020.38;4751462;30;20406;-86
2023/10/29 01:25:30;;;;;;;0.10;0.10;;;;;;;15.07;58.82;101026.75;4751158;30;20444;-84
2023/10/29 01:27:56;;;;;;;0.30;0.30;;;;;;;14.95;59.19;101030.97;4767715;30;20894;-85
2023/10/29 01:30:21;;;;;;;0.30;0.30;;;;;;;15.00;58.92;101031.19;4751142;30;20439;-85
2023/10/29 01:32:47;;;;;;;0.20;0.20;;;;;;;14.86;59.08;101024.94;4751140;30;20416;-84
2023/10/29 01:35:13;;;;;;;0.20;0.20;;;;;;;14.86;58.83;101015.06;4767132;30;20491;-85
2023/10/29 01:37:39;;;;;;;0.10;0.10;;;;;;;14.92;58.48;101024.16;4751333;30;20467;-84
2023/10/29 01:40:05;;;;;;;0.20;0.20;;;;;;;15.01;58.33;101024.84;4767361;30;20409;-83
2023/10/29 01:42:31;;;;;;;0.22;0.22;;;;;;;15.03;58.12;101036.97;4751482;30;20490;-85
2023/10/29 01:44:57;;;;;;;0.20;0.20;;;;;;;14.98;58.45;101033.25;4751120;30;20497;-85
2023/10/29 01:47:22;;;;;;;0.20;0.20;;;;;;;14.96;58.44;101036.09;4750939;30;20413;-85
2023/10/29 01:49:48;;;;;;;0.20;0.20;;;;;;;15.03;58.13;101031.66;4751258;30;20406;-85
2023/10/29 01:52:13;;;;;;;0.17;0.17;;;;;;;15.14;57.99;101042.84;4766791;30;20461;-85
2023/10/29 01:54:39;;;;;;;0.30;0.30;;;;;;;15.14;57.73;101045.50;4750330;30;20479;-85
2023/10/29 01:57:05;;;;;;;0.10;0.10;;;;;;;15.17;57.68;101040.59;4750893;30;20762;-85
2023/10/29 01:59:30;;;;;;;0.10;0.10;;;;;;;15.19;57.45;101035.91;4750638;30;20398;-85
2023/10/29 02:01:56;;;;;;;0.10;0.10;;;;;;;15.22;57.33;101042.72;4750836;30;20406;-84
2023/10/29 02:04:26;;;;;;;0.10;0.10;;;;;;;15.17;57.10;101040.59;4751058;30;20410;-85
2023/10/29 02:06:56;;;;;;;0.30;0.28;;;;;;;15.21;56.98;101049.88;4766791;30;20406;-86
2023/10/29 02:09:22;;;;;;;0.47;0.30;;;;;;;15.21;56.77;101043.72;4749548;30;20410;-87
2023/10/29 02:11:49;;;;;;;0.20;0.20;;;;;;;15.18;56.97;101047.63;4764606;30;20487;-83
2023/10/29 02:14:14;;;;;;;0.20;0.20;;;;;;;15.18;57.04;101041.44;4765005;30;20417;-84
2023/10/29 02:16:40;;;;;;;0.20;0.20;;;;;;;15.20;56.94;101040.22;4750405;30;20926;-83
2023/10/29 02:19:06;;;;;;;0.20;0.20;;;;;;;15.19;56.93;101041.25;4753674;30;20420;-85
2023/10/29 02:21:34;;;;;;;0.17;0.17;;;;;;;15.23;56.82;101041.69;4768147;30;20414;-83
2023/10/29 02:24:01;;;;;;;0.10;0.10;;;;;;;15.24;56.47;101052.19;4753130;30;20409;-83
2023/10/29 02:26:27;;;;;;;0.25;0.25;;;;;;;15.10;57.02;101050.41;4753352;30;20474;-84
2023/10/29 02:28:52;;;;;;;0.20;0.20;;;;;;;14.76;58.19;101051.09;4768524;30;20401;-84
2023/10/29 02:31:21;;;;;;;0.30;0.30;;;;;;;14.36;59.52;101070.09;4753357;30;20444;-84
2023/10/29 02:33:47;;;;;;;0.10;0.10;;;;;;;14.31;59.73;101065.34;4769985;30;20426;-83
2023/10/29 02:36:13;;;;;;;0.10;0.10;;;;;;;14.44;58.96;101054.00;4768459;30;20452;-84
2023/10/29 02:38:40;;;;;;;0.20;0.20;;;;;;;14.61;58.58;101064.50;4790871;30;20397;-85
2023/10/29 02:41:07;;;;;;;0.10;0.10;;;;;;;14.68;58.30;101071.53;4769589;30;20900;-84
2023/10/29 02:43:34;;;;;;;0.17;0.17;;;;;;;14.65;58.37;101058.56;4753809;30;20802;-84
2023/10/29 02:46:00;;;;;;;0.10;0.10;;;;;;;14.65;57.90;101061.25;4769635;30;20429;-84
2023/10/29 02:48:26;;;;;;;0.20;0.20;;;;;;;14.74;57.95;101061.13;4753744;30;20986;-84
2023/10/29 02:50:53;;;;;;;0.20;0.20;;;;;;;14.82;57.70;101069.00;4769864;30;20520;-83
2023/10/29 02:53:18;;;;;;;0.20;0.20;;;;;;;14.72;57.58;101059.47;4768926;30;20409;-84
2023/10/29 02:55:47;;;;;;;0.10;0.10;;;;;;;14.69;57.78;101059.03;4753459;30;20840;-85
2023/10/29 02:58:12;;;;;;;0.20;0.20;;;;;;;14.73;57.81;101060.31;4753558;30;20422;-85
2023/10/29 03:00:39;;;;;;;0.30;0.30;;;;;;;14.76;57.43;101054.59;4769534;30;20775;-85
2023/10/29 03:03:05;;;;;;;0.13;0.13;;;;;;;14.77;57.27;101061.59;4753260;30;20492;-85
2023/10/29 03:05:31;;;;;;;0.10;0.10;;;;;;;14.69;57.77;101057.19;4769018;30;20983;-85
2023/10/29 03:07:59;;;;;;;0.10;0.10;;;;;;;14.70;57.51;101069.50;4753055;30;20402;-84
2023/10/29 03:10:26;;;;;;;0.20;0.20;;;;;;;14.77;57.21;101069.59;4768963;30;20441;-85
2023/10/29 03:12:51;;;;;;;0.10;0.10;;;;;;;14.86;57.19;101067.63;4752728;30;20488;-85
2023/10/29 03:15:17;;;;;;;0.10;0.10;;;;;;;14.85;57.23;101074.78;4753146;30;20525;-86
2023/10/29 03:17:43;;;;;;;0.20;0.20;;;;;;;14.80;57.18;101073.72;4753239;30;20918;-86
2023/10/29 03:20:09;;;;;;;0.10;0.10;;;;;;;14.82;56.83;101077.88;4768952;30;20410;-86
2023/10/29 03:22:34;;;;;;;0.10;0.10;;;;;;;14.79;56.96;101070.22;4753273;30;20497;-85
2023/10/29 03:25:00;;;;;;;0.40;0.20;;;;;;;14.76;57.08;101072.44;4752995;30;20493;-84
2023/10/29 03:27:27;;;;;;;0.10;0.10;;;;;;;14.70;57.32;101080.19;4769118;30;20433;-86
2023/10/29 03:29:53;;;;;;;0.10;0.10;;;;;;;14.57;57.56;101076.50;4769175;30;20448;-87
2023/10/29 03:32:18;;;;;;;0.20;0.20;;;;;;;14.52;57.55;101083.22;4769054;30;20469;-85
2023/10/29 03:34:44;;;;;;;0.20;0.20;;;;;;;14.31;58.10;101094.69;4752837;30;20877;-86
2023/10/29 03:37:09;;;;;;;0.20;0.20;;;;;;;14.23;58.32;101085.94;4753039;30;20961;-86
2023/10/29 03:39:35;;;;;;;0.40;0.40;;;;;;;13.95;59.06;101100.75;4752826;30;20422;-85
2023/10/29 03:42:02;;;;;;;0.10;0.10;;;;;;;13.74;59.85;101106.78;4753211;30;20428;-86
2023/10/29 03:44:28;;;;;;;0.10;0.10;;;;;;;13.65;60.68;101113.19;4752992;30;20457;-87
2023/10/29 03:46:53;;;;;;;0.50;0.30;;;;;;;13.66;60.24;101109.50;4752661;30;20438;-86
2023/10/29 03:49:20;;;;;;;0.10;0.10;;;;;;;13.71;60.46;101116.97;4752830;30;20505;-84
2023/10/29 03:51:47;;;;;;;0.10;0.10;;;;;;;13.80;60.11;101107.88;4769050;30;20461;-87
2023/10/29 03:54:13;;;;;;;0.08;0.08;;;;;;;14.01;59.31;101115.19;4752768;30;20410;-85
2023/10/29 03:56:39;;;;;;;0.10;0.10;;;;;;;14.09;59.08;101101.75;4767476;30;20410;-84
2023/10/29 03:59:05;;;;;;;0.10;0.10;;;;;;;14.14;58.51;101106.53;4761144;30;20462;-85
2023/10/29 04:01:31;;;;;;;0.10;0.10;;;;;;;14.16;58.50;101088.53;4761176;30;20421;-84
2023/10/29 04:03:56;;;;;;;0.10;0.10;;;;;;;14.06;58.71;101102.13;4766800;30;20494;-83
2023/10/29 04:06:22;;;;;;;0.40;0.40;;;;;;;13.95;59.24;101102.56;4762533;30;20424;-85
2023/10/29 04:08:48;;;;;;;0.17;0.17;;;;;;;14.00;59.32;101102.03;4758852;30;20500;-86
2023/10/29 04:11:13;;;;;;;0.40;0.40;;;;;;;14.03;58.78;101099.00;4768490;30;20440;-85
2023/10/29 04:13:39;;;;;;;0.50;0.50;;;;;;;13.94;58.92;101107.06;4764973;30;20464;-84
2023/10/29 04:16:05;;;;;;;0.20;0.20;;;;;;;13.77;59.92;101105.56;4759838;30;20426;-85
2023/10/29 04:18:31;;;;;;;0.10;0.10;;;;;;;13.67;59.98;101102.38;4750305;30;20434;-85
2023/10/29 04:21:06;;;;;;;0.10;0.10;;;;;;;13.54;60.45;101109.13;4760028;30;20416;-85
2023/10/29 04:23:32;;;;;;;0.17;0.17;;;;;;;13.53;60.84;101122.63;4757743;30;20488;-83
2023/10/29 04:25:58;;;;;;;0.10;0.10;;;;;;;13.63;60.40;101109.88;4741497;30;20418;-85
2023/10/29 04:28:24;;;;;;;0.00;0.00;;;;;;;13.76;59.87;101110.09;4745584;30;20418;-85
2023/10/29 04:30:49;;;;;;;0.10;0.10;;;;;;;13.85;59.54;101110.03;4747666;30;20894;-85
2023/10/29 04:33:16;;;;;;;0.10;0.10;;;;;;;13.92;59.37;101116.28;4765271;30;20430;-85
2023/10/29 04:35:43;;;;;;;0.20;0.20;;;;;;;13.92;59.03;101113.63;4762307;30;20788;-86
2023/10/29 04:38:08;;;;;;;0.10;0.10;;;;;;;13.71;59.63;101117.78;4746349;30;20428;-86
2023/10/29 04:40:34;;;;;;;0.20;0.20;;;;;;;13.56;60.36;101119.59;4744525;30;21550;-86
2023/10/29 04:42:59;;;;;;;0.10;0.10;;;;;;;13.66;60.15;101128.16;4751087;30;20859;-85
2023/10/29 04:45:25;;;;;;;0.10;0.10;;;;;;;13.63;59.83;101128.53;4751185;30;20416;-88
2023/10/29 04:47:51;;;;;;;0.10;0.10;;;;;;;13.69;59.51;101135.78;4754156;30;20480;-85
2023/10/29 04:50:16;;;;;;;0.10;0.10;;;;;;;13.72;59.27;101127.44;4736547;30;20459;-85
2023/10/29 04:52:42;;;;;;;0.10;0.10;;;;;;;13.76;59.15;101135.91;4735580;30;20951;-85
2023/10/29 04:55:08;;;;;;;0.10;0.10;;;;;;;13.82;58.89;101142.34;4751475;30;20823;-86
2023/10/29 04:57:35;;;;;;;0.10;0.10;;;;;;;13.87;58.76;101146.13;4751220;30;20416;-85
2023/10/29 05:00:04;;;;;;;0.10;0.10;;;;;;;13.58;59.21;101152.22;4735935;30;20995;-87
2023/10/29 05:02:30;;;;;;;0.10;0.10;;;;;;;13.30;59.88;101166.00;4735978;30;20850;-88
2023/10/29 05:04:56;;;;;;;0.30;0.30;;;;;;;13.22;60.33;101159.91;4736243;30;20436;-86
2023/10/29 05:07:22;;;;;;;0.10;0.10;;;;;;;13.25;60.01;101167.56;4751174;30;20912;-85
2023/10/29 05:09:48;;;;;;;0.10;0.10;;;;;;;13.34;59.85;101162.06;4752301;30;20435;-86
2023/10/29 05:12:15;;;;;;;0.10;0.10;;;;;;;13.54;59.39;101157.06;4740127;30;20466;-85
2023/10/29 05:14:40;;;;;;;0.10;0.10;;;;;;;13.52;59.13;101163.56;4761905;30;20466;-85
2023/10/29 05:17:06;;;;;;;0.10;0.10;;;;;;;13.42;59.51;101165.66;4748260;30;20423;-85
2023/10/29 05:19:32;;;;;;;0.10;0.10;;;;;;;13.51;59.30;101168.06;4763405;30;20403;-85
2023/10/29 05:21:57;;;;;;;0.28;0.28;;;;;;;13.68;58.98;101171.41;4745711;30;20400;-85
2023/10/29 05:24:23;;;;;;;0.10;0.10;;;;;;;13.70;58.58;101179.25;4748752;30;20900;-84
2023/10/29 05:26:52;;;;;;;0.20;0.20;;;;;;;13.48;59.60;101191.56;4734531;30;20516;-85
2023/10/29 05:29:17;;;;;;;0.20;0.20;;;;;;;13.29;60.15;101196.31;4748972;30;20493;-84
2023/10/29 05:31:43;;;;;;;0.10;0.10;;;;;;;12.89;61.94;101219.50;4734439;30;20435;-85
2023/10/29 05:34:09;;;;;;;0.20;0.20;;;;;;;12.65;62.61;101240.84;4734545;30;20454;-83
2023/10/29 05:36:35;;;;;;;0.20;0.20;;;;;;;12.48;62.91;101227.59;4734178;30;20418;-82
2023/10/29 05:39:01;;;;;;;0.10;0.10;;;;;;;12.72;62.12;101244.50;4749341;30;20412;-83
2023/10/29 05:41:29;;;;;;;0.20;0.20;;;;;;;12.90;61.29;101237.09;4748903;30;20474;-84
2023/10/29 05:43:54;;;;;;;0.30;0.30;;;;;;;13.06;60.81;101238.88;4747785;30;20416;-86
2023/10/29 05:46:22;;;;;;;0.30;0.30;;;;;;;13.00;61.21;101235.06;4732891;30;20427;-86
2023/10/29 05:48:50;;;;;;;0.20;0.20;;;;;;;13.09;60.87;101238.53;4734054;30;20420;-86
2023/10/29 05:51:19;;;;;;;0.20;0.20;;;;;;;13.15;60.91;101261.78;4732351;30;20420;-86
2023/10/29 05:53:47;;;;;;;0.35;0.30;;;;;;;13.23;61.14;101257.41;4748622;30;20510;-86
2023/10/29 05:56:13;;;;;;;0.10;0.10;;;;;;;13.45;60.63;101267.34;4748486;30;20792;-84
2023/10/29 05:58:38;;;;;;;3.50;0.50;;;;;;;13.64;60.16;101259.88;4748653;30;20485;-83
2023/10/29 06:01:10;;;;;;;0.40;0.40;;;;;;;13.86;59.53;101263.56;4734426;30;20415;-84
2023/10/29 06:03:39;;;;;;;0.10;0.10;;;;;;;13.99;59.57;101266.47;4734659;30;20486;-84
2023/10/29 06:06:10;;;;;;;0.10;0.10;;;;;;;14.07;59.05;101269.06;4733500;30;20479;-84
2023/10/29 06:08:40;;;;;;;0.10;0.10;;;;;;;14.21;58.75;101266.63;4733829;30;20920;-84
2023/10/29 06:11:05;;;;;;;0.10;0.10;;;;;;;14.29;58.83;101279.88;4733900;30;20428;-83
2023/10/29 06:13:44;;;;;;;0.20;0.20;;;;;;;14.14;58.83;101286.00;4749486;30;20476;-85
2023/10/29 06:16:18;;;;;;;0.40;0.40;;;;;;;13.83;60.65;101296.72;4751021;30;20453;-83
2023/10/29 06:18:46;;;;;;;0.28;0.28;;;;;;;13.92;60.28;101293.00;4734102;30;20821;-83
2023/10/29 06:21:12;;;;;;;0.20;0.20;;;;;;;14.06;60.04;101301.22;4750017;30;20415;-85
2023/10/29 06:23:41;;;;;;;0.50;0.50;;;;;;;13.95;60.38;101300.66;4749996;30;20430;-85
2023/10/29 06:26:10;;;;;;;0.30;0.30;;;;;;;13.93;60.68;101302.63;4758650;30;20418;-84
2023/10/29 06:28:36;;;;;;;0.20;0.20;;;;;;;14.01;60.23;101304.44;4750915;30;20447;-85
2023/10/29 06:31:01;;;;;;;0.35;0.35;;;;;;;14.12;60.06;101304.00;4769160;29;20469;-89
2023/10/29 06:33:32;;;;;;;0.40;0.40;;;;;;;14.35;59.87;101295.16;4770814;29;20509;-89
2023/10/29 06:35:58;;;;;;;0.10;0.10;;;;;;;14.57;59.33;101296.13;4736518;30;20412;-90
2023/10/29 06:38:27;;;;;;;0.13;0.13;;;;;;;14.71;59.11;101311.34;4752100;30;20415;-87
2023/10/29 06:40:59;;;;;;;0.20;0.20;;;;;;;14.82;59.07;101301.22;4748972;30;20427;-88
2023/10/29 06:43:31;;;;;;;0.13;0.13;;;;;;;14.93;58.91;101303.44;4734932;30;20973;-84
2023/10/29 06:46:01;;;;;;;0.10;0.10;;;;;;;15.03;58.70;101295.97;4733651;30;20416;-86
2023/10/29 06:48:28;;;;;;;0.30;0.30;;;;;;;15.08;58.86;101284.75;4733860;30;20424;-86
2023/10/29 06:51:04;;;;;;;0.20;0.20;;;;;;;15.23;58.82;101290.06;4750124;30;21030;-86
2023/10/29 06:53:37;;;;;;;0.30;0.30;;;;;;;15.34;58.66;101294.09;4749703;30;20411;-86
2023/10/29 06:56:10;;;;;;;0.20;0.20;;;;;;;15.42;58.56;101310.84;4742855;30;20426;-86
2023/10/29 06:58:36;;;;;;;0.10;0.10;;;;;;;15.59;58.43;101305.28;4743364;30;20443;-86
2023/10/29 07:01:08;;;;;;;0.30;0.30;;;;;;;15.71;58.13;101301.09;4734275;30;20447;-88
2023/10/29 07:03:35;;;;;;;0.40;0.40;;;;;;;15.77;58.23;101296.88;4751142;30;20499;-87
2023/10/29 07:06:18;;;;;;;0.30;0.30;;;;;;;15.78;58.24;101291.34;4736897;30;20415;-89
2023/10/29 07:08:47;;;;;;;0.22;0.22;;;;;;;15.86;58.02;101301.91;4752740;30;20415;-86
2023/10/29 07:11:13;;;;;;;0.38;0.38;;;;;;;15.99;58.24;101319.09;4737776;30;20518;-87
2023/10/29 07:13:41;;;;;;;0.40;0.30;;;;;;;16.02;58.03;101313.34;4737393;30;20503;-86
2023/10/29 07:16:08;;;;;;;0.30;0.30;;;;;;;15.99;58.21;101314.59;4739226;30;20419;-91
2023/10/29 07:18:36;;;;;;;0.10;0.10;;;;;;;16.03;58.36;101321.19;4757297;30;20446;-89
2023/10/29 07:21:03;;;;;;;0.22;0.22;;;;;;;16.05;58.35;101334.38;4755360;30;20415;-90
2023/10/29 07:23:29;;;;;;;0.38;0.38;;;;;;;16.04;58.51;101330.88;4755663;30;20407;-90
2023/10/29 07:25:54;;;;;;;0.25;0.25;;;;;;;16.07;58.57;101327.00;4738904;30;20956;-90
2023/10/29 07:28:23;;;;;;;0.20;0.20;;;;;;;16.26;58.21;101344.25;4737979;30;20424;-91
2023/10/29 07:30:50;;;;;;;0.43;0.43;;;;;;;16.27;58.49;101319.13;4754813;30;20431;-90
2023/10/29 07:33:19;;;;;;;0.20;0.20;;;;;;;16.44;58.18;101325.06;4752441;30;20416;-91
2023/10/29 07:35:48;;;;;;;0.20;0.20;;;;;;;16.57;57.88;101314.44;4754367;30;20416;-90
2023/10/29 07:38:14;;;;;;;0.10;0.10;;;;;;;16.62;57.93;101311.19;4737940;30;20536;-90
2023/10/29 07:40:39;;;;;;;0.13;0.13;;;;;;;16.70;57.88;101307.53;4739027;30;20447;-88
2023/10/29 07:43:09;;;;;;;0.25;0.25;;;;;;;16.76;57.37;101329.00;4738649;30;20458;-89
2023/10/29 07:45:37;;;;;;;0.20;0.20;;;;;;;16.78;57.44;101310.03;4738432;30;20435;-89
2023/10/29 07:54:42;;;;;;;0.20;0.20;;;;;;;17.14;56.85;101309.88;4752407;30;20403;-86
2023/10/29 07:57:07;;;;;;;0.10;0.10;;;;;;;17.26;56.37;101320.03;4735632;30;20513;-86
2023/10/29 07:59:36;;;;;;;0.10;0.10;;;;;;;17.28;56.25;101320.66;4736252;30;20924;-86
2023/10/29 08:02:04;;;;;;;0.05;0.05;;;;;;;17.42;56.11;101321.53;4751446;30;20416;-87
2023/10/29 08:04:30;;;;;;;0.10;0.10;;;;;;;17.41;56.09;101318.00;4749606;30;20424;-87
2023/10/29 08:06:55;;;;;;;0.20;0.20;;;;;;;17.52;55.96;101327.31;4735067;30;20529;-87
2023/10/29 08:09:22;;;;;;;0.23;0.23;;;;;;;17.63;56.00;101324.09;4749902;30;20443;-87
2023/10/29 08:11:51;;;;;;;0.10;0.10;;;;;;;17.66;55.79;101330.88;4749487;30;20577;-85
2023/10/29 08:14:17;;;;;;;0.10;0.10;;;;;;;17.75;55.52;101332.34;4748173;30;20482;-85
2023/10/29 08:16:43;;;;;;;0.20;0.20;;;;;;;17.82;55.33;101327.00;4733688;30;21237;-85
2023/10/29 08:19:08;;;;;;;0.10;0.10;;;;;;;17.94;55.17;101339.66;4749690;30;20465;-85
2023/10/29 08:21:34;;;;;;;0.20;0.20;;;;;;;18.21;55.08;101341.56;4749089;30;20864;-86
2023/10/29 08:23:59;;;;;;;0.10;0.10;;;;;;;18.34;54.49;101341.56;4749396;30;20423;-85
2023/10/29 08:26:26;;;;;;;0.10;0.10;;;;;;;18.45;54.61;101350.84;4749068;30;20415;-85
2023/10/29 08:28:53;;;;;;;0.20;0.20;;;;;;;18.48;54.29;101345.06;4748878;30;20954;-85
2023/10/29 08:31:18;;;;;;;0.20;0.20;;;;;;;18.63;54.52;101347.53;4748860;30;20470;-85
2023/10/29 08:33:44;;;;;;;0.15;0.15;;;;;;;18.59;53.83;101349.00;4748981;30;20520;-86
2023/10/29 08:36:19;;;;;;;0.13;0.13;;;;;;;18.86;54.05;101342.56;4749705;30;20415;-85
2023/10/29 08:38:47;;;;;;;0.10;0.10;;;;;;;19.25;53.93;101340.84;4735162;30;20408;-86
2023/10/29 08:41:19;;;;;;;0.20;0.20;;;;;;;19.60;53.86;101339.66;4735983;30;20962;-86
2023/10/29 08:43:52;;;;;;;0.10;0.10;;;;;;;19.90;53.13;101331.84;4734967;30;20499;-84
2023/10/29 08:46:21;;;;;;;0.10;0.10;;;;;;;19.79;53.46;101351.34;4751575;30;20419;-84
2023/10/29 08:48:51;;;;;;;0.05;0.05;;;;;;;19.79;52.92;101348.66;4750468;30;20415;-86
2023/10/29 08:51:21;;;;;;;0.10;0.10;;;;;;;19.99;53.02;101344.00;4749851;30;20439;-85
2023/10/29 08:53:50;;;;;;;0.10;0.10;;;;;;;20.02;52.26;101345.41;4735251;30;20420;-87
2023/10/29 08:56:18;;;;;;;0.10;0.10;;;;;;;20.04;52.27;101346.88;4735213;30;20928;-86
2023/10/29 08:58:44;;;;;;;0.20;0.20;;;;;;;19.97;52.17;101342.56;4734746;30;20494;-84
2023/10/29 09:01:13;;;;;;;0.10;0.10;;;;;;;20.11;51.73;101351.38;4751039;30;21198;-84
2023/10/29 09:03:38;;;;;;;0.10;0.10;;;;;;;20.15;51.66;101348.03;4735020;30;20880;-85
2023/10/29 09:06:04;;;;;;;0.10;0.10;;;;;;;20.20;51.56;101352.75;4761826;30;20407;-86
2023/10/29 09:08:38;;;;;;;0.20;0.20;;;;;;;20.19;51.38;101351.13;4740095;30;20458;-84
2023/10/29 09:11:05;;;;;;;0.10;0.10;;;;;;;20.08;51.07;101352.66;4748094;30;20435;-84
2023/10/29 09:13:30;;;;;;;0.20;0.20;;;;;;;19.97;51.38;101345.25;4732435;30;20948;-84
2023/10/29 09:16:03;;;;;;;0.30;0.30;;;;;;;20.12;51.10;101353.03;4748268;30;20422;-85
2023/10/29 09:18:29;;;;;;;0.10;0.10;;;;;;;20.29;50.96;101350.63;4733190;30;20483;-83
2023/10/29 09:20:55;;;;;;;0.10;0.10;;;;;;;20.34;50.65;101345.41;4739208;30;20447;-83
2023/10/29 09:23:22;;;;;;;0.10;0.10;;;;;;;20.41;50.61;101348.88;4755504;30;20490;-83
2023/10/29 09:25:47;;;;;;;0.10;0.10;;;;;;;20.39;50.42;101341.00;4736957;30;20424;-83
2023/10/29 09:28:14;;;;;;;0.30;0.30;;;;;;;20.52;50.56;101336.56;4734892;30;20407;-83
2023/10/29 09:30:40;;;;;;;0.20;0.20;;;;;;;20.72;50.24;101347.19;4749324;30;20435;-84
2023/10/29 09:33:08;;;;;;;0.13;0.13;;;;;;;20.64;50.27;101339.41;4718772;30;21017;-83
2023/10/29 09:35:37;;;;;;;0.20;0.20;;;;;;;20.70;49.79;101335.81;4749927;30;20476;-82
2023/10/29 09:38:03;;;;;;;0.10;0.10;;;;;;;20.71;49.73;101340.97;4749730;30;20434;-83
2023/10/29 09:40:29;;;;;;;0.03;0.03;;;;;;;20.82;49.55;101344.81;4733939;30;20940;-81
2023/10/29 09:42:59;;;;;;;0.20;0.20;;;;;;;20.77;49.04;101329.28;4749919;30;20609;-82
2023/10/29 09:45:26;;;;;;;0.10;0.10;;;;;;;20.81;49.17;101333.22;4733889;30;20443;-84
2023/10/29 09:47:53;;;;;;;0.10;0.10;;;;;;;20.74;49.59;101328.91;4749528;30;20404;-84
2023/10/29 09:50:23;;;;;;;0.20;0.20;;;;;;;20.66;49.95;101332.72;4743064;30;20508;-84
2023/10/29 09:52:50;;;;;;;0.20;0.20;;;;;;;20.68;50.08;101336.03;4751140;30;20414;-85
2023/10/29 09:55:20;;;;;;;0.10;0.10;;;;;;;20.79;49.30;101326.38;4751482;30;20483;-85
2023/10/29 09:57:47;;;;;;;0.10;0.10;;;;;;;21.10;49.09;101328.09;4766216;30;20402;-85
2023/10/29 10:00:16;;;;;;;0.10;0.10;;;;;;;21.21;48.46;101329.22;4764680;30;20413;-86
2023/10/29 10:02:56;;;;;;;0.10;0.10;;;;;;;21.26;48.26;101325.88;4749492;30;20402;-85
2023/10/29 10:05:23;;;;;;;0.03;0.03;;;;;;;21.24;48.36;101314.47;4750725;30;20418;-86
2023/10/29 10:07:49;;;;;;;0.00;0.00;;;;;;;21.30;47.84;101311.72;4750342;30;20444;-85
2023/10/29 10:10:15;;;;;;;0.25;0.25;;;;;;;21.25;48.14;101316.13;4750040;30;20533;-85
2023/10/29 10:12:49;;;;;;;0.10;0.10;;;;;;;21.11;48.48;101318.97;4765820;30;20564;-84
2023/10/29 10:15:16;;;;;;;0.10;0.10;;;;;;;21.24;48.55;101311.78;4750933;30;20807;-83
2023/10/29 10:17:57;;;;;;;0.00;0.00;;;;;;;21.30;48.67;101300.94;4769051;30;20402;-84
2023/10/29 10:20:23;;;;;;;0.10;0.10;;;;;;;21.37;48.18;101296.28;4750911;30;20424;-84
2023/10/29 10:22:59;;;;;;;0.10;0.10;;;;;;;21.33;48.53;101300.44;4766346;30;20445;-84
2023/10/29 10:25:26;;;;;;;0.10;0.10;;;;;;;21.53;47.57;101299.41;4767510;30;20452;-84
2023/10/29 10:27:57;;;;;;;0.10;0.10;;;;;;;21.46;47.20;101296.78;4766890;30;20450;-83
2023/10/29 10:30:37;;;;;;;0.10;0.10;;;;;;;21.49;47.25;101293.63;4767307;30;20413;-82
2023/10/29 10:33:14;;;;;;;0.40;0.10;;;;;;;21.63;46.74;101282.69;4765995;30;20941;-83
2023/10/29 10:35:41;;;;;;;0.00;0.00;;;;;;;21.59;47.16;101287.72;4767198;30;20422;-84
2023/10/29 10:38:20;;;;;;;0.00;0.00;;;;;;;21.64;47.02;101282.41;4753035;30;20517;-86
2023/10/29 10:40:47;;;;;;;0.10;0.10;;;;;;;21.69;46.33;101270.94;4770241;30;20841;-82
2023/10/29 10:43:18;;;;;;;0.00;0.00;;;;;;;21.80;45.63;101272.84;4755844;30;20782;-82
2023/10/29 10:45:49;;;;;;;0.10;0.10;;;;;;;21.64;46.36;101276.22;4756971;30;20429;-83
2023/10/29 10:48:16;;;;;;;0.10;0.10;;;;;;;21.79;45.94;101276.63;4772070;30;20478;-84
2023/10/29 10:50:43;;;;;;;0.25;0.25;;;;;;;21.95;45.92;101281.34;4756707;30;20449;-83
2023/10/29 10:53:09;;;;;;;0.10;0.10;;;;;;;21.85;46.49;101278.38;4755076;30;20410;-84
2023/10/29 10:55:38;;;;;;;0.08;0.08;;;;;;;21.78;46.77;101280.34;4769567;30;20413;-84
2023/10/29 10:58:04;;;;;;;0.20;0.20;;;;;;;21.87;46.78;101278.16;4769699;30;20410;-83
2023/10/29 11:00:32;;;;;;;0.10;0.05;;;;;;;21.91;46.82;101274.78;4755619;30;20413;-83
2023/10/29 11:02:59;;;;;;;0.20;0.20;;;;;;;22.08;46.21;101279.50;4755168;30;20505;-83
2023/10/29 11:05:30;;;;;;;0.25;0.25;;;;;;;22.15;45.79;101270.22;4759294;30;20437;-81
2023/10/29 11:07:57;;;;;;;0.10;0.10;;;;;;;22.20;45.01;101261.44;4757314;30;20811;-82
2023/10/29 11:10:25;;;;;;;0.30;0.30;;;;;;;22.27;44.94;101258.63;4770225;30;20500;-82
2023/10/29 11:12:51;;;;;;;0.10;0.10;;;;;;;22.41;43.98;101259.22;4771430;30;20414;-82
2023/10/29 11:15:20;;;;;;;0.10;0.10;;;;;;;22.28;45.24;101255.69;4767424;30;20425;-83
2023/10/29 11:17:59;;;;;;;0.20;0.20;;;;;;;22.20;46.12;101241.69;4757296;30;20927;-83
2023/10/29 11:20:38;;;;;;;0.10;0.10;;;;;;;22.28;43.31;101238.66;4754789;30;20779;-82
2023/10/29 11:23:15;;;;;;;0.10;0.10;;;;;;;22.37;43.64;101245.34;4755425;30;20410;-83
2023/10/29 11:25:41;;;;;;;0.10;0.10;;;;;;;22.42;43.33;101241.94;4754677;30;20451;-82
2023/10/29 11:28:28;;;;;;;0.10;0.10;;;;;;;22.46;41.48;101241.25;4754505;30;20424;-82
2023/10/29 11:31:13;;;;;;;0.30;0.30;;;;;;;22.56;41.18;101245.22;4753986;30;20426;-82